sensor_id;sensor_type;location;lat;lon;timestamp;pressure;altitude;pressure_sealevel;temperature;humidity
7170;BME280;3626;42.656;23.312;2023-03-22T00:00:07;94261.53;;;7.56;100.00
7170;BME280;3626;42.656;23.312;2023-03-22T00:00:17;94262.31;;;7.57;100.00
7170;BME280;3626;42.656;23.312;2023-03-22T00:00:24;94263.91;;;7.58;100.00
7170;BME280;3626;42.656;23.312;2023-03-22T00:00:31;94268.09;;;7.59;100.00
7170;BME280;3626;42.656;23.312;2023-03-22T00:00:38;94269.69;;;7.60;100.00
7170;BME280;3626;42.656;23.312;2023-03-22T00:00:44;94266.97;;;7.61;100.00
7170;BME280;3626;42.656;23.312;2023-03-22T00:00:51;94264.41;;;7.61;100.00
7170;BME280;3626;42.656;23.312;2023-03-22T00:00:57;94264.41;;;7.61;100.00
7170;BME280;3626;42.656;23.312;2023-03-22T00:01:07;94271.94;;;7.63;100.00
7170;BME280;3626;42.656;23.312;2023-03-22T00:01:15;94268.41;;;7.64;100.00
7170;BME280;3626;42.656;23.312;2023-03-22T00:01:24;94263.28;;;7.64;100.00
7170;BME280;3626;42.656;23.312;2023-03-22T00:01:33;94262.34;;;7.65;100.00
7170;BME280;3626;42.656;23.312;2023-03-22T00:01:39;94269.06;;;7.66;100.00
7170;BME280;3626;42.656;23.312;2023-03-22T00:01:46;94263.94;;;7.66;100.00
7170;BME280;3626;42.656;23.312;2023-03-22T00:01:51;94265.53;;;7.67;100.00
7170;BME280;3626;42.656;23.312;2023-03-22T00:01:58;94263.78;;;7.67;100.00
7170;BME280;3626;42.656;23.312;2023-03-22T00:02:05;94267.94;;;7.68;100.00
7170;BME280;3626;42.656;23.312;2023-03-22T00:02:11;94267.94;;;7.68;100.00
7170;BME280;3626;42.656;23.312;2023-03-22T00:02:17;94259.28;;;7.69;100.00
7170;BME280;3626;42.656;23.312;2023-03-22T00:02:23;94264.44;;;7.69;100.00
7170;BME280;3626;42.656;23.312;2023-03-22T00:02:30;94263.47;;;7.70;100.00
7170;BME280;3626;42.656;23.312;2023-03-22T00:02:37;94268.44;;;7.72;100.00
7170;BME280;3626;42.656;23.312;2023-03-22T00:02:44;94265.88;;;7.72;100.00
7170;BME280;3626;42.656;23.312;2023-03-22T00:02:50;94264.09;;;7.72;100.00
7170;BME280;3626;42.656;23.312;2023-03-22T00:02:56;94270.03;;;7.73;100.00
7170;BME280;3626;42.656;23.312;2023-03-22T00:03:02;94266.53;;;7.74;100.00
7170;BME280;3626;42.656;23.312;2023-03-22T00:03:09;94266.53;;;7.74;100.00
7170;BME280;3626;42.656;23.312;2023-03-22T00:03:15;94263.00;;;7.75;100.00
7170;BME280;3626;42.656;23.312;2023-03-22T00:03:22;94262.19;;;7.74;100.00
7170;BME280;3626;42.656;23.312;2023-03-22T00:03:28;94263.97;;;7.74;100.00
7170;BME280;3626;42.656;23.312;2023-03-22T00:03:33;94269.09;;;7.74;100.00
7170;BME280;3626;42.656;23.312;2023-03-22T00:03:40;94267.34;;;7.74;100.00
7170;BME280;3626;42.656;23.312;2023-03-22T00:03:47;94263.00;;;7.75;100.00
7170;BME280;3626;42.656;23.312;2023-03-22T00:03:53;94268.13;;;7.75;100.00
7170;BME280;3626;42.656;23.312;2023-03-22T00:03:59;94262.03;;;7.76;100.00
7170;BME280;3626;42.656;23.312;2023-03-22T00:04:05;94258.66;;;7.75;100.00
7170;BME280;3626;42.656;23.312;2023-03-22T00:04:10;94266.34;;;7.75;100.00
7170;BME280;3626;42.656;23.312;2023-03-22T00:04:17;94260.25;;;7.76;100.00
7170;BME280;3626;42.656;23.312;2023-03-22T00:04:23;94266.19;;;7.77;100.00
7170;BME280;3626;42.656;23.312;2023-03-22T00:04:29;94267.03;;;7.78;100.00
7170;BME280;3626;42.656;23.312;2023-03-22T00:04:35;94267.16;;;7.76;100.00
7170;BME280;3626;42.656;23.312;2023-03-22T00:04:41;94267.34;;;7.74;100.00
7170;BME280;3626;42.656;23.312;2023-03-22T00:04:47;94263.97;;;7.74;100.00
7170;BME280;3626;42.656;23.312;2023-03-22T00:04:53;94266.66;;;7.72;100.00
7170;BME280;3626;42.656;23.312;2023-03-22T00:05:00;94261.69;;;7.71;100.00
7170;BME280;3626;42.656;23.312;2023-03-22T00:05:07;94267.81;;;7.70;100.00
7170;BME280;3626;42.656;23.312;2023-03-22T00:05:13;94269.41;;;7.71;100.00
7170;BME280;3626;42.656;23.312;2023-03-22T00:05:19;94270.38;;;7.70;100.00
7170;BME280;3626;42.656;23.312;2023-03-22T00:05:25;94261.06;;;7.69;100.00
7170;BME280;3626;42.656;23.312;2023-03-22T00:05:31;94267.81;;;7.70;100.00
7170;BME280;3626;42.656;23.312;2023-03-22T00:05:38;94265.38;;;7.68;100.00
7170;BME280;3626;42.656;23.312;2023-03-22T00:05:44;94268.78;;;7.69;100.00
7170;BME280;3626;42.656;23.312;2023-03-22T00:05:56;94265.22;;;7.70;100.00
7170;BME280;3626;42.656;23.312;2023-03-22T00:06:02;94266.03;;;7.70;100.00
7170;BME280;3626;42.656;23.312;2023-03-22T00:06:08;94265.22;;;7.70;100.00
7170;BME280;3626;42.656;23.312;2023-03-22T00:06:14;94266.84;;;7.71;100.00
7170;BME280;3626;42.656;23.312;2023-03-22T00:06:20;94260.09;;;7.70;100.00
7170;BME280;3626;42.656;23.312;2023-03-22T00:06:26;94266.84;;;7.71;100.00
7170;BME280;3626;42.656;23.312;2023-03-22T00:06:32;94261.69;;;7.71;100.00
7170;BME280;3626;42.656;23.312;2023-03-22T00:06:38;94265.88;;;7.72;100.00
7170;BME280;3626;42.656;23.312;2023-03-22T00:06:45;94265.88;;;7.72;100.00
7170;BME280;3626;42.656;23.312;2023-03-22T00:06:51;94268.44;;;7.72;100.00
7170;BME280;3626;42.656;23.312;2023-03-22T00:06:57;94265.72;;;7.73;100.00
7170;BME280;3626;42.656;23.312;2023-03-22T00:07:02;94262.31;;;7.73;100.00
7170;BME280;3626;42.656;23.312;2023-03-22T00:07:08;94267.34;;;7.74;100.00
7170;BME280;3626;42.656;23.312;2023-03-22T00:07:14;94263.00;;;7.75;100.00
7170;BME280;3626;42.656;23.312;2023-03-22T00:07:20;94265.56;;;7.75;100.00
7170;BME280;3626;42.656;23.312;2023-03-22T00:07:26;94261.41;;;7.74;100.00
7170;BME280;3626;42.656;23.312;2023-03-22T00:07:32;94265.56;;;7.75;100.00
7170;BME280;3626;42.656;23.312;2023-03-22T00:07:38;94263.00;;;7.75;100.00
7170;BME280;3626;42.656;23.312;2023-03-22T00:07:45;94263.97;;;7.74;100.00
7170;BME280;3626;42.656;23.312;2023-03-22T00:07:54;94262.31;;;7.73;100.00
7170;BME280;3626;42.656;23.312;2023-03-22T00:08:02;94263.16;;;7.73;100.00
7170;BME280;3626;42.656;23.312;2023-03-22T00:08:11;94263.16;;;7.73;100.00
7170;BME280;3626;42.656;23.312;2023-03-22T00:08:17;94261.41;;;7.74;100.00
7170;BME280;3626;42.656;23.312;2023-03-22T00:08:26;94261.41;;;7.74;100.00
7170;BME280;3626;42.656;23.312;2023-03-22T00:08:31;94260.59;;;7.73;100.00
7170;BME280;3626;42.656;23.312;2023-03-22T00:08:38;94263.31;;;7.72;100.00
7170;BME280;3626;42.656;23.312;2023-03-22T00:08:47;94268.44;;;7.72;100.00
7170;BME280;3626;42.656;23.312;2023-03-22T00:08:53;94266.84;;;7.71;100.00
7170;BME280;3626;42.656;23.312;2023-03-22T00:08:58;94263.47;;;7.70;100.00
7170;BME280;3626;42.656;23.312;2023-03-22T00:09:04;94267.00;;;7.69;100.00
7170;BME280;3626;42.656;23.312;2023-03-22T00:09:10;94266.19;;;7.69;100.00
7170;BME280;3626;42.656;23.312;2023-03-22T00:09:16;94265.53;;;7.67;100.00
7170;BME280;3626;42.656;23.312;2023-03-22T00:09:22;94263.13;;;7.65;100.00
7170;BME280;3626;42.656;23.312;2023-03-22T00:09:29;94262.34;;;7.65;100.00
7170;BME280;3626;42.656;23.312;2023-03-22T00:09:35;94269.22;;;7.64;100.00
7170;BME280;3626;42.656;23.312;2023-03-22T00:09:41;94262.34;;;7.65;100.00
7170;BME280;3626;42.656;23.312;2023-03-22T00:09:47;94264.06;;;7.64;100.00
7170;BME280;3626;42.656;23.312;2023-03-22T00:09:52;94265.84;;;7.64;100.00
7170;BME280;3626;42.656;23.312;2023-03-22T00:09:58;94264.91;;;7.65;100.00
7170;BME280;3626;42.656;23.312;2023-03-22T00:10:05;94270.97;;;7.64;100.00
7170;BME280;3626;42.656;23.312;2023-03-22T00:10:11;94264.91;;;7.65;100.00
7170;BME280;3626;42.656;23.312;2023-03-22T00:10:16;94264.06;;;7.64;100.00
7170;BME280;3626;42.656;23.312;2023-03-22T00:10:22;94267.47;;;7.65;100.00
7170;BME280;3626;42.656;23.312;2023-03-22T00:10:29;94261.50;;;7.64;100.00
7170;BME280;3626;42.656;23.312;2023-03-22T00:10:36;94265.84;;;7.64;100.00
7170;BME280;3626;42.656;23.312;2023-03-22T00:10:42;94270.03;;;7.65;100.00
7170;BME280;3626;42.656;23.312;2023-03-22T00:10:48;94259.78;;;7.65;100.00
7170;BME280;3626;42.656;23.312;2023-03-22T00:10:54;94262.47;;;7.63;100.00
7170;BME280;3626;42.656;23.312;2023-03-22T00:11:02;94264.25;;;7.63;100.00
7170;BME280;3626;42.656;23.312;2023-03-22T00:11:09;94258.13;;;7.64;100.00
7170;BME280;3626;42.656;23.312;2023-03-22T00:11:17;94265.84;;;7.64;100.00
7170;BME280;3626;42.656;23.312;2023-03-22T00:11:23;94265.72;;;7.65;100.00
7170;BME280;3626;42.656;23.312;2023-03-22T00:11:30;94260.56;;;7.65;100.00
7170;BME280;3626;42.656;23.312;2023-03-22T00:11:38;94263.13;;;7.65;100.00
7170;BME280;3626;42.656;23.312;2023-03-22T00:11:43;94254.63;;;7.65;100.00
7170;BME280;3626;42.656;23.312;2023-03-22T00:11:50;94261.50;;;7.64;100.00
7170;BME280;3626;42.656;23.312;2023-03-22T00:11:56;94267.63;;;7.63;100.00
7170;BME280;3626;42.656;23.312;2023-03-22T00:12:02;94261.50;;;7.64;100.00
7170;BME280;3626;42.656;23.312;2023-03-22T00:12:08;94259.91;;;7.63;100.00
7170;BME280;3626;42.656;23.312;2023-03-22T00:12:14;94265.84;;;7.64;100.00
7170;BME280;3626;42.656;23.312;2023-03-22T00:12:20;94264.91;;;7.65;100.00
7170;BME280;3626;42.656;23.312;2023-03-22T00:12:26;94264.06;;;7.64;100.00
7170;BME280;3626;42.656;23.312;2023-03-22T00:12:32;94260.72;;;7.64;100.00
7170;BME280;3626;42.656;23.312;2023-03-22T00:12:38;94259.09;;;7.63;100.00
7170;BME280;3626;42.656;23.312;2023-03-22T00:12:43;94266.81;;;7.63;100.00
7170;BME280;3626;42.656;23.312;2023-03-22T00:12:51;94255.91;;;7.61;100.00
7170;BME280;3626;42.656;23.312;2023-03-22T00:12:57;94261.03;;;7.61;100.00
7170;BME280;3626;42.656;23.312;2023-03-22T00:13:03;94267.91;;;7.60;100.00
7170;BME280;3626;42.656;23.312;2023-03-22T00:13:10;94262.94;;;7.59;100.00
7170;BME280;3626;42.656;23.312;2023-03-22T00:13:16;94263.63;;;7.61;100.00
7170;BME280;3626;42.656;23.312;2023-03-22T00:13:22;94266.97;;;7.61;100.00
7170;BME280;3626;42.656;23.312;2023-03-22T00:13:28;94266.19;;;7.61;100.00
7170;BME280;3626;42.656;23.312;2023-03-22T00:13:37;94265.34;;;7.60;100.00
7170;BME280;3626;42.656;23.312;2023-03-22T00:13:43;94257.66;;;7.60;100.00
7170;BME280;3626;42.656;23.312;2023-03-22T00:13:51;94262.16;;;7.58;100.00
7170;BME280;3626;42.656;23.312;2023-03-22T00:13:57;94262.94;;;7.59;100.00
7170;BME280;3626;42.656;23.312;2023-03-22T00:14:05;94261.34;;;7.58;100.00
7170;BME280;3626;42.656;23.312;2023-03-22T00:14:12;94263.91;;;7.58;100.00
7170;BME280;3626;42.656;23.312;2023-03-22T00:14:18;94261.34;;;7.58;100.00
7170;BME280;3626;42.656;23.312;2023-03-22T00:14:24;94261.19;;;7.59;100.00
7170;BME280;3626;42.656;23.312;2023-03-22T00:14:30;94259.41;;;7.60;100.00
7170;BME280;3626;42.656;23.312;2023-03-22T00:14:35;94260.38;;;7.59;100.00
7170;BME280;3626;42.656;23.312;2023-03-22T00:14:41;94255.06;;;7.60;100.00
7170;BME280;3626;42.656;23.312;2023-03-22T00:14:47;94266.19;;;7.61;100.00
7170;BME280;3626;42.656;23.312;2023-03-22T00:14:53;94265.34;;;7.60;100.00
7170;BME280;3626;42.656;23.312;2023-03-22T00:14:59;94261.03;;;7.61;100.00
7170;BME280;3626;42.656;23.312;2023-03-22T00:15:06;94264.41;;;7.61;100.00
7170;BME280;3626;42.656;23.312;2023-03-22T00:15:12;94260.88;;;7.62;100.00
7170;BME280;3626;42.656;23.312;2023-03-22T00:15:19;94261.69;;;7.63;100.00
7170;BME280;3626;42.656;23.312;2023-03-22T00:15:27;94259.09;;;7.63;100.00
7170;BME280;3626;42.656;23.312;2023-03-22T00:15:34;94264.06;;;7.64;100.00
7170;BME280;3626;42.656;23.312;2023-03-22T00:15:42;94260.72;;;7.64;100.00
7170;BME280;3626;42.656;23.312;2023-03-22T00:15:49;94262.34;;;7.65;100.00
7170;BME280;3626;42.656;23.312;2023-03-22T00:15:55;94264.06;;;7.64;100.00
7170;BME280;3626;42.656;23.312;2023-03-22T00:16:02;94261.50;;;7.64;100.00
7170;BME280;3626;42.656;23.312;2023-03-22T00:16:08;94261.50;;;7.64;100.00
7170;BME280;3626;42.656;23.312;2023-03-22T00:16:15;94259.78;;;7.65;100.00
7170;BME280;3626;42.656;23.312;2023-03-22T00:16:21;94265.84;;;7.64;100.00
7170;BME280;3626;42.656;23.312;2023-03-22T00:16:27;94267.63;;;7.63;100.00
7170;BME280;3626;42.656;23.312;2023-03-22T00:16:33;94261.03;;;7.61;100.00
7170;BME280;3626;42.656;23.312;2023-03-22T00:16:39;94263.44;;;7.62;100.00
7170;BME280;3626;42.656;23.312;2023-03-22T00:16:45;94261.03;;;7.61;100.00
7170;BME280;3626;42.656;23.312;2023-03-22T00:16:51;94263.75;;;7.59;100.00
7170;BME280;3626;42.656;23.312;2023-03-22T00:16:57;94261.19;;;7.59;100.00
7170;BME280;3626;42.656;23.312;2023-03-22T00:17:04;94265.50;;;7.59;100.00
7170;BME280;3626;42.656;23.312;2023-03-22T00:17:09;94256.22;;;7.58;100.00
7170;BME280;3626;42.656;23.312;2023-03-22T00:17:16;94263.13;;;7.57;100.00
7170;BME280;3626;42.656;23.312;2023-03-22T00:17:21;94262.94;;;7.59;100.00
7170;BME280;3626;42.656;23.312;2023-03-22T00:17:27;94257.97;;;7.57;100.00
7170;BME280;3626;42.656;23.312;2023-03-22T00:17:34;94261.34;;;7.58;100.00
7170;BME280;3626;42.656;23.312;2023-03-22T00:17:41;94269.06;;;7.58;100.00
7170;BME280;3626;42.656;23.312;2023-03-22T00:17:46;94257.19;;;7.57;100.00
7170;BME280;3626;42.656;23.312;2023-03-22T00:17:52;94265.69;;;7.57;100.00
7170;BME280;3626;42.656;23.312;2023-03-22T00:17:58;94261.34;;;7.58;100.00
7170;BME280;3626;42.656;23.312;2023-03-22T00:18:04;94264.72;;;7.58;100.00
7170;BME280;3626;42.656;23.312;2023-03-22T00:18:12;94262.94;;;7.59;100.00
7170;BME280;3626;42.656;23.312;2023-03-22T00:18:18;94264.72;;;7.58;100.00
7170;BME280;3626;42.656;23.312;2023-03-22T00:18:24;94268.09;;;7.59;100.00
7170;BME280;3626;42.656;23.312;2023-03-22T00:18:30;94260.22;;;7.60;100.00
7170;BME280;3626;42.656;23.312;2023-03-22T00:18:37;94259.59;;;7.58;100.00
7170;BME280;3626;42.656;23.312;2023-03-22T00:18:43;94256.03;;;7.59;100.00
7170;BME280;3626;42.656;23.312;2023-03-22T00:18:49;94259.59;;;7.58;100.00
7170;BME280;3626;42.656;23.312;2023-03-22T00:18:55;94262.94;;;7.59;100.00
7170;BME280;3626;42.656;23.312;2023-03-22T00:19:01;94268.09;;;7.59;100.00
7170;BME280;3626;42.656;23.312;2023-03-22T00:19:07;94263.91;;;7.58;100.00
7170;BME280;3626;42.656;23.312;2023-03-22T00:19:15;94261.34;;;7.58;100.00
7170;BME280;3626;42.656;23.312;2023-03-22T00:19:21;94264.88;;;7.57;100.00
7170;BME280;3626;42.656;23.312;2023-03-22T00:19:27;94266.66;;;7.56;100.00
7170;BME280;3626;42.656;23.312;2023-03-22T00:19:33;94264.88;;;7.57;100.00
7170;BME280;3626;42.656;23.312;2023-03-22T00:19:39;94254.63;;;7.57;100.00
7170;BME280;3626;42.656;23.312;2023-03-22T00:19:49;94263.25;;;7.56;100.00
7170;BME280;3626;42.656;23.312;2023-03-22T00:19:55;94266.66;;;7.56;100.00
7170;BME280;3626;42.656;23.312;2023-03-22T00:20:03;94259.88;;;7.55;100.00
7170;BME280;3626;42.656;23.312;2023-03-22T00:20:11;94266.66;;;7.56;100.00
7170;BME280;3626;42.656;23.312;2023-03-22T00:20:17;94264.22;;;7.55;100.00
7170;BME280;3626;42.656;23.312;2023-03-22T00:20:24;94271.78;;;7.56;100.00
7170;BME280;3626;42.656;23.312;2023-03-22T00:20:30;94274.34;;;7.56;100.00
7170;BME280;3626;42.656;23.312;2023-03-22T00:20:38;94260.69;;;7.56;100.00
7170;BME280;3626;42.656;23.312;2023-03-22T00:20:48;94258.94;;;7.56;100.00
7170;BME280;3626;42.656;23.312;2023-03-22T00:20:55;94263.25;;;7.56;100.00
7170;BME280;3626;42.656;23.312;2023-03-22T00:21:02;94265.03;;;7.55;100.00
7170;BME280;3626;42.656;23.312;2023-03-22T00:21:11;94259.88;;;7.55;100.00
7170;BME280;3626;42.656;23.312;2023-03-22T00:21:18;94264.22;;;7.55;100.00
7170;BME280;3626;42.656;23.312;2023-03-22T00:21:23;94260.84;;;7.54;100.00
7170;BME280;3626;42.656;23.312;2023-03-22T00:21:29;94260.84;;;7.54;100.00
7170;BME280;3626;42.656;23.312;2023-03-22T00:21:35;94259.25;;;7.53;100.00
7170;BME280;3626;42.656;23.312;2023-03-22T00:21:41;94263.41;;;7.54;100.00
7170;BME280;3626;42.656;23.312;2023-03-22T00:21:47;94266.16;;;7.53;100.00
7170;BME280;3626;42.656;23.312;2023-03-22T00:21:53;94264.38;;;7.53;100.00
7170;BME280;3626;42.656;23.312;2023-03-22T00:21:58;94264.38;;;7.53;100.00
7170;BME280;3626;42.656;23.312;2023-03-22T00:22:05;94261.97;;;7.51;100.00
7170;BME280;3626;42.656;23.312;2023-03-22T00:22:11;94262.94;;;7.50;100.00
7170;BME280;3626;42.656;23.312;2023-03-22T00:22:19;94266.28;;;7.51;100.00
7170;BME280;3626;42.656;23.312;2023-03-22T00:22:25;94255.22;;;7.50;100.00
7170;BME280;3626;42.656;23.312;2023-03-22T00:22:31;94261.16;;;7.51;100.00
7170;BME280;3626;42.656;23.312;2023-03-22T00:22:38;94259.38;;;7.51;100.00
7170;BME280;3626;42.656;23.312;2023-03-22T00:22:44;94264.53;;;7.51;100.00
7170;BME280;3626;42.656;23.312;2023-03-22T00:22:50;94263.72;;;7.51;100.00
7170;BME280;3626;42.656;23.312;2023-03-22T00:22:56;94261.97;;;7.51;100.00
7170;BME280;3626;42.656;23.312;2023-03-22T00:23:02;94260.22;;;7.52;100.00
7170;BME280;3626;42.656;23.312;2023-03-22T00:23:08;94264.38;;;7.53;100.00
7170;BME280;3626;42.656;23.312;2023-03-22T00:23:14;94261.03;;;7.53;100.00
7170;BME280;3626;42.656;23.312;2023-03-22T00:23:20;94263.41;;;7.54;100.00
7170;BME280;3626;42.656;23.312;2023-03-22T00:23:27;94262.44;;;7.55;100.00
7170;BME280;3626;42.656;23.312;2023-03-22T00:23:33;94264.22;;;7.55;100.00
7170;BME280;3626;42.656;23.312;2023-03-22T00:23:43;94254.75;;;7.55;100.00
7170;BME280;3626;42.656;23.312;2023-03-22T00:23:49;94259.88;;;7.55;100.00
7170;BME280;3626;42.656;23.312;2023-03-22T00:23:55;94259.09;;;7.55;100.00
7170;BME280;3626;42.656;23.312;2023-03-22T00:24:02;94257.47;;;7.54;100.00
7170;BME280;3626;42.656;23.312;2023-03-22T00:24:09;94261.81;;;7.53;100.00
7170;BME280;3626;42.656;23.312;2023-03-22T00:24:15;94256.69;;;7.53;100.00
7170;BME280;3626;42.656;23.312;2023-03-22T00:24:21;94260.06;;;7.54;100.00
7170;BME280;3626;42.656;23.312;2023-03-22T00:24:27;94260.84;;;7.54;100.00
7170;BME280;3626;42.656;23.312;2023-03-22T00:24:34;94260.84;;;7.54;100.00
7170;BME280;3626;42.656;23.312;2023-03-22T00:24:42;94261.66;;;7.55;100.00
7170;BME280;3626;42.656;23.312;2023-03-22T00:24:48;94260.06;;;7.54;100.00
7170;BME280;3626;42.656;23.312;2023-03-22T00:24:54;94263.41;;;7.54;100.00
7170;BME280;3626;42.656;23.312;2023-03-22T00:25:00;94256.53;;;7.55;100.00
7170;BME280;3626;42.656;23.312;2023-03-22T00:25:07;94263.41;;;7.54;100.00
7170;BME280;3626;42.656;23.312;2023-03-22T00:25:17;94261.66;;;7.55;100.00
7170;BME280;3626;42.656;23.312;2023-03-22T00:25:23;94261.66;;;7.55;100.00
7170;BME280;3626;42.656;23.312;2023-03-22T00:25:29;94255.56;;;7.56;100.00
7170;BME280;3626;42.656;23.312;2023-03-22T00:25:35;94260.69;;;7.56;100.00
7170;BME280;3626;42.656;23.312;2023-03-22T00:25:42;94265.03;;;7.55;100.00
7170;BME280;3626;42.656;23.312;2023-03-22T00:25:48;94259.75;;;7.57;100.00
7170;BME280;3626;42.656;23.312;2023-03-22T00:25:54;94267.44;;;7.57;100.00
7170;BME280;3626;42.656;23.312;2023-03-22T00:26:02;94262.31;;;7.57;100.00
7170;BME280;3626;42.656;23.312;2023-03-22T00:26:09;94259.75;;;7.57;100.00
7170;BME280;3626;42.656;23.312;2023-03-22T00:26:15;94267.28;;;7.58;100.00
7170;BME280;3626;42.656;23.312;2023-03-22T00:26:21;94259.75;;;7.57;100.00
7170;BME280;3626;42.656;23.312;2023-03-22T00:26:30;94262.31;;;7.57;100.00
7170;BME280;3626;42.656;23.312;2023-03-22T00:26:36;94262.94;;;7.59;100.00
7170;BME280;3626;42.656;23.312;2023-03-22T00:26:42;94262.16;;;7.58;100.00
7170;BME280;3626;42.656;23.312;2023-03-22T00:26:48;94260.38;;;7.59;100.00
7170;BME280;3626;42.656;23.312;2023-03-22T00:26:54;94256.22;;;7.58;100.00
7170;BME280;3626;42.656;23.312;2023-03-22T00:27:00;94257.81;;;7.59;100.00
7170;BME280;3626;42.656;23.312;2023-03-22T00:27:06;94261.97;;;7.60;100.00
7170;BME280;3626;42.656;23.312;2023-03-22T00:27:12;94261.03;;;7.61;100.00
7170;BME280;3626;42.656;23.312;2023-03-22T00:27:18;94260.22;;;7.60;100.00
7170;BME280;3626;42.656;23.312;2023-03-22T00:27:24;94258.47;;;7.61;100.00
7170;BME280;3626;42.656;23.312;2023-03-22T00:27:31;94258.47;;;7.61;100.00
7170;BME280;3626;42.656;23.312;2023-03-22T00:27:37;94260.06;;;7.62;100.00
7170;BME280;3626;42.656;23.312;2023-03-22T00:27:43;94258.47;;;7.61;100.00
7170;BME280;3626;42.656;23.312;2023-03-22T00:27:49;94264.25;;;7.63;100.00
7170;BME280;3626;42.656;23.312;2023-03-22T00:27:56;94263.44;;;7.62;100.00
7170;BME280;3626;42.656;23.312;2023-03-22T00:28:02;94254.13;;;7.61;100.00
7170;BME280;3626;42.656;23.312;2023-03-22T00:28:08;94254.13;;;7.61;100.00
7170;BME280;3626;42.656;23.312;2023-03-22T00:28:15;94257.50;;;7.62;100.00
7170;BME280;3626;42.656;23.312;2023-03-22T00:28:21;94262.66;;;7.62;100.00
7170;BME280;3626;42.656;23.312;2023-03-22T00:28:27;94254.94;;;7.62;100.00
7170;BME280;3626;42.656;23.312;2023-03-22T00:28:33;94259.09;;;7.63;100.00
7170;BME280;3626;42.656;23.312;2023-03-22T00:28:39;94255.56;;;7.64;100.00
7170;BME280;3626;42.656;23.312;2023-03-22T00:28:46;94259.91;;;7.63;100.00
7170;BME280;3626;42.656;23.312;2023-03-22T00:28:52;94259.91;;;7.63;100.00
7170;BME280;3626;42.656;23.312;2023-03-22T00:28:58;94256.53;;;7.63;100.00
7170;BME280;3626;42.656;23.312;2023-03-22T00:29:04;94260.88;;;7.62;100.00
7170;BME280;3626;42.656;23.312;2023-03-22T00:29:13;94254.13;;;7.61;100.00
7170;BME280;3626;42.656;23.312;2023-03-22T00:29:19;94255.06;;;7.60;100.00
7170;BME280;3626;42.656;23.312;2023-03-22T00:29:27;94259.41;;;7.60;100.00
7170;BME280;3626;42.656;23.312;2023-03-22T00:29:32;94252.69;;;7.59;100.00
7170;BME280;3626;42.656;23.312;2023-03-22T00:29:38;94251.88;;;7.58;100.00
7170;BME280;3626;42.656;23.312;2023-03-22T00:29:45;94258.78;;;7.58;100.00
7170;BME280;3626;42.656;23.312;2023-03-22T00:29:51;94258.94;;;7.56;100.00
7170;BME280;3626;42.656;23.312;2023-03-22T00:29:57;94260.56;;;7.57;100.00
7170;BME280;3626;42.656;23.312;2023-03-22T00:30:04;94253.81;;;7.56;100.00
7170;BME280;3626;42.656;23.312;2023-03-22T00:30:10;94258.13;;;7.56;100.00
7170;BME280;3626;42.656;23.312;2023-03-22T00:30:17;94254.91;;;7.54;100.00
7170;BME280;3626;42.656;23.312;2023-03-22T00:30:23;94252.50;;;7.52;100.00
7170;BME280;3626;42.656;23.312;2023-03-22T00:30:29;94254.25;;;7.51;100.00
7170;BME280;3626;42.656;23.312;2023-03-22T00:30:39;94257.16;;;7.48;100.00
7170;BME280;3626;42.656;23.312;2023-03-22T00:30:50;94251.22;;;7.48;100.00
7170;BME280;3626;42.656;23.312;2023-03-22T00:31:00;94254.59;;;7.48;100.00
7170;BME280;3626;42.656;23.312;2023-03-22T00:31:07;94258.75;;;7.49;100.00
7170;BME280;3626;42.656;23.312;2023-03-22T00:31:14;94259.56;;;7.50;100.00
7170;BME280;3626;42.656;23.312;2023-03-22T00:31:20;94248.50;;;7.49;100.00
7170;BME280;3626;42.656;23.312;2023-03-22T00:31:26;94251.06;;;7.49;100.00
7170;BME280;3626;42.656;23.312;2023-03-22T00:31:33;94252.81;;;7.49;100.00
7170;BME280;3626;42.656;23.312;2023-03-22T00:31:39;94257.97;;;7.49;100.00
7170;BME280;3626;42.656;23.312;2023-03-22T00:31:45;94257.00;;;7.50;100.00
7170;BME280;3626;42.656;23.312;2023-03-22T00:31:56;94255.53;;;7.47;100.00
7170;BME280;3626;42.656;23.312;2023-03-22T00:32:02;94250.38;;;7.47;100.00
7170;BME280;3626;42.656;23.312;2023-03-22T00:32:08;94252.03;;;7.48;100.00
7170;BME280;3626;42.656;23.312;2023-03-22T00:32:14;94252.03;;;7.48;100.00
7170;BME280;3626;42.656;23.312;2023-03-22T00:32:22;94256.34;;;7.48;100.00
7170;BME280;3626;42.656;23.312;2023-03-22T00:32:28;94258.09;;;7.47;100.00
7170;BME280;3626;42.656;23.312;2023-03-22T00:32:35;94255.53;;;7.47;100.00
7170;BME280;3626;42.656;23.312;2023-03-22T00:32:41;94253.94;;;7.46;100.00
7170;BME280;3626;42.656;23.312;2023-03-22T00:32:50;94253.94;;;7.46;100.00
7170;BME280;3626;42.656;23.312;2023-03-22T00:32:56;94253.13;;;7.46;100.00
7170;BME280;3626;42.656;23.312;2023-03-22T00:33:02;94259.06;;;7.46;100.00
7170;BME280;3626;42.656;23.312;2023-03-22T00:33:08;94257.47;;;7.45;100.00
7170;BME280;3626;42.656;23.312;2023-03-22T00:33:14;94259.06;;;7.46;100.00
7170;BME280;3626;42.656;23.312;2023-03-22T00:33:20;94253.28;;;7.44;100.00
7170;BME280;3626;42.656;23.312;2023-03-22T00:33:26;94254.25;;;7.43;100.00
7170;BME280;3626;42.656;23.312;2023-03-22T00:33:34;94255.06;;;7.44;100.00
7170;BME280;3626;42.656;23.312;2023-03-22T00:33:41;94262.91;;;7.42;100.00
7170;BME280;3626;42.656;23.312;2023-03-22T00:33:46;94262.09;;;7.42;100.00
7170;BME280;3626;42.656;23.312;2023-03-22T00:33:52;94252.00;;;7.40;100.00
7170;BME280;3626;42.656;23.312;2023-03-22T00:33:58;94266.44;;;7.41;100.00
7170;BME280;3626;42.656;23.312;2023-03-22T00:34:04;94252.97;;;7.39;100.00
7170;BME280;3626;42.656;23.312;2023-03-22T00:34:10;94251.19;;;7.40;100.00
7170;BME280;3626;42.656;23.312;2023-03-22T00:34:16;94254.69;;;7.39;100.00
7170;BME280;3626;42.656;23.312;2023-03-22T00:34:22;94260.66;;;7.39;100.00
7170;BME280;3626;42.656;23.312;2023-03-22T00:34:30;94256.47;;;7.38;100.00
7170;BME280;3626;42.656;23.312;2023-03-22T00:34:38;94254.88;;;7.37;100.00
7170;BME280;3626;42.656;23.312;2023-03-22T00:34:44;94252.28;;;7.37;100.00
7170;BME280;3626;42.656;23.312;2023-03-22T00:34:50;94255.66;;;7.38;100.00
7170;BME280;3626;42.656;23.312;2023-03-22T00:34:56;94254.06;;;7.37;100.00
7170;BME280;3626;42.656;23.312;2023-03-22T00:35:02;94260.00;;;7.37;100.00
7170;BME280;3626;42.656;23.312;2023-03-22T00:35:09;94260.00;;;7.37;100.00